createdAt,value
2023-04-28T00:00:13.650Z,4.10
2023-04-28T00:02:17.178Z,3.33
2023-04-28T00:04:20.258Z,3.80
2023-04-28T00:06:23.409Z,4.07
2023-04-28T00:08:27.303Z,3.37
2023-04-28T00:10:31.832Z,3.70
2023-04-28T00:12:34.611Z,4.07
2023-04-28T00:14:37.370Z,3.73
2023-04-28T00:16:40.378Z,3.47
2023-04-28T00:18:43.416Z,3.27
2023-04-28T00:20:46.192Z,3.90
2023-04-28T00:22:49.510Z,3.80
2023-04-28T00:24:52.353Z,3.40
2023-04-28T00:26:57.361Z,3.73
2023-04-28T00:29:00.262Z,3.87
2023-04-28T00:31:03.156Z,4.10
2023-04-28T00:33:06.028Z,4.10
2023-04-28T00:35:09.442Z,3.80
2023-04-28T00:37:12.329Z,3.90
2023-04-28T00:39:15.100Z,4.10
2023-04-28T00:41:17.907Z,4.20
2023-04-28T00:43:22.043Z,4.20
2023-04-28T00:45:24.858Z,3.90
2023-04-28T00:47:27.662Z,4.17
2023-04-28T00:49:30.780Z,4.00
2023-04-28T00:51:34.324Z,4.40
2023-04-28T00:53:37.088Z,4.43
2023-04-28T00:55:39.858Z,4.10
2023-04-28T00:57:42.699Z,3.80
2023-04-28T00:59:46.819Z,3.80
2023-04-28T01:01:50.001Z,3.90
2023-04-28T01:03:53.090Z,3.97
2023-04-28T01:05:56.075Z,3.90
2023-04-28T01:07:58.861Z,4.27
2023-04-28T01:10:01.625Z,3.80
2023-04-28T01:12:04.550Z,4.63
2023-04-28T01:14:07.683Z,4.53
2023-04-28T01:16:12.167Z,4.07
2023-04-28T01:18:15.014Z,4.30
2023-04-28T01:20:17.873Z,4.27
2023-04-28T01:22:20.684Z,4.10
2023-04-28T01:24:24.811Z,3.90
2023-04-28T01:26:27.649Z,3.80
2023-04-28T01:28:30.437Z,3.90
2023-04-28T01:30:33.203Z,4.47
2023-04-28T01:32:36.116Z,3.83
2023-04-28T01:34:38.901Z,4.27
2023-04-28T01:36:41.666Z,4.40
2023-04-28T01:38:44.502Z,5.03
2023-04-28T01:40:48.604Z,4.53
2023-04-28T01:42:51.477Z,4.03
2023-04-28T01:44:54.248Z,4.73
2023-04-28T01:46:57.017Z,4.67
2023-04-28T01:48:59.806Z,3.87
2023-04-28T01:51:02.640Z,4.87
2023-04-28T01:53:05.427Z,4.60
2023-04-28T01:55:08.884Z,4.30
2023-04-28T01:57:13.005Z,4.73
2023-04-28T01:59:16.157Z,4.60
2023-04-28T02:01:18.951Z,4.10
2023-04-28T02:03:21.971Z,4.53
2023-04-28T02:05:24.979Z,4.53
2023-04-28T02:07:27.789Z,4.70
2023-04-28T02:09:30.600Z,4.40
2023-04-28T02:11:33.355Z,4.80
2023-04-28T02:13:37.507Z,5.07
2023-04-28T02:15:41.356Z,4.07
2023-04-28T02:17:44.195Z,4.20
2023-04-28T02:19:46.995Z,5.00
2023-04-28T02:21:49.756Z,4.70
2023-04-28T02:23:52.523Z,4.40
2023-04-28T02:26:03.598Z,4.67
2023-04-28T02:28:06.386Z,4.90
2023-04-28T02:30:11.269Z,4.97
2023-04-28T02:32:14.026Z,5.33
2023-04-28T02:34:17.038Z,5.20
2023-04-28T02:36:19.953Z,4.90
2023-04-28T02:38:22.728Z,5.07
2023-04-28T02:40:25.470Z,4.90
2023-04-28T02:42:28.209Z,4.83
2023-04-28T02:44:30.960Z,5.17
2023-04-28T02:46:35.088Z,4.80
2023-04-28T02:48:37.858Z,4.83
2023-04-28T02:50:40.634Z,4.90
2023-04-28T02:52:43.384Z,5.57
2023-04-28T02:54:48.865Z,5.37
2023-04-28T02:56:51.616Z,4.83
2023-04-28T02:58:54.367Z,5.60
2023-04-28T03:00:57.261Z,5.23
2023-04-28T03:03:02.077Z,5.37
2023-04-28T03:05:05.282Z,5.60
2023-04-28T03:07:08.175Z,5.13
2023-04-28T03:09:11.347Z,4.80
2023-04-28T03:11:14.214Z,4.93
2023-04-28T03:13:16.998Z,6.00
2023-04-28T03:15:19.727Z,5.43
2023-04-28T03:17:22.527Z,4.40
2023-04-28T03:19:27.206Z,5.43
2023-04-28T03:21:29.952Z,5.00
2023-04-28T03:23:32.728Z,5.60
2023-04-28T03:25:35.487Z,5.97
2023-04-28T03:27:38.253Z,5.53
2023-04-28T03:29:41.054Z,5.10
2023-04-28T03:31:43.862Z,6.13
2023-04-28T03:33:47.161Z,4.90
2023-04-28T03:35:51.273Z,5.27
2023-04-28T03:37:54.028Z,5.90
2023-04-28T03:39:56.809Z,5.00
2023-04-28T03:41:59.584Z,5.60
2023-04-28T03:44:02.373Z,4.90
2023-04-28T03:46:05.704Z,5.87
2023-04-28T03:48:08.692Z,5.53
2023-04-28T03:50:11.920Z,5.20
2023-04-28T03:52:16.026Z,6.40
2023-04-28T03:54:18.826Z,5.00
2023-04-28T03:56:21.848Z,5.77
2023-04-28T03:58:24.626Z,5.93
2023-04-28T04:00:27.473Z,5.70
2023-04-28T04:02:30.350Z,5.20
2023-04-28T04:04:33.349Z,6.10
2023-04-28T04:06:36.234Z,5.63
2023-04-28T04:08:40.362Z,5.87
2023-04-28T04:10:43.127Z,5.40
2023-04-28T04:12:45.945Z,6.10
2023-04-28T04:14:48.804Z,5.73
2023-04-28T04:16:51.552Z,6.00
2023-04-28T04:18:54.319Z,5.70
2023-04-28T04:20:57.314Z,5.87
2023-04-28T04:23:00.130Z,5.83
2023-04-28T04:25:04.352Z,5.10
2023-04-28T04:27:07.119Z,5.60
2023-04-28T04:29:09.936Z,5.77
2023-04-28T04:31:12.896Z,5.30
2023-04-28T04:33:16.384Z,5.40
2023-04-28T04:35:19.144Z,5.93
2023-04-28T04:37:21.898Z,5.43
2023-04-28T04:39:24.684Z,6.23
2023-04-28T04:41:28.811Z,5.80
2023-04-28T04:43:31.596Z,5.47
2023-04-28T04:45:35.387Z,6.30
2023-04-28T04:47:38.242Z,6.23
2023-04-28T04:49:41.142Z,5.20
2023-04-28T04:51:44.098Z,5.93
2023-04-28T04:53:46.876Z,5.73
2023-04-28T04:55:49.659Z,5.90
2023-04-28T04:57:53.806Z,6.43
2023-04-28T04:59:56.610Z,5.90
2023-04-28T05:01:59.408Z,5.60
2023-04-28T05:04:02.388Z,6.20
2023-04-28T05:06:05.368Z,5.70
2023-04-28T05:08:08.160Z,5.80
2023-04-28T05:10:11.618Z,5.63
2023-04-28T05:12:14.409Z,6.30
2023-04-28T05:14:18.698Z,5.60
2023-04-28T05:16:21.618Z,6.63
2023-04-28T05:18:24.430Z,6.13
2023-04-28T05:20:27.202Z,6.20
2023-04-28T05:22:31.227Z,5.93
2023-04-28T05:24:34.005Z,6.77
2023-04-28T05:26:36.992Z,6.00
2023-04-28T05:28:40.751Z,5.40
2023-04-28T05:30:45.666Z,6.60
2023-04-28T05:32:48.466Z,6.70
2023-04-28T05:34:51.237Z,5.67
2023-04-28T05:36:54.052Z,6.77
2023-04-28T05:38:56.859Z,6.73
2023-04-28T05:40:59.626Z,6.27
2023-04-28T05:43:02.407Z,6.67
2023-04-28T05:45:05.902Z,6.50
2023-04-28T05:47:10.125Z,5.87
2023-04-28T05:49:12.932Z,5.90
2023-04-28T05:51:15.859Z,6.20
2023-04-28T05:53:18.715Z,6.00
2023-04-28T05:55:21.993Z,6.53
2023-04-28T05:57:24.763Z,5.97
2023-04-28T05:59:28.502Z,6.10
2023-04-28T06:01:31.378Z,6.77
2023-04-28T06:03:35.975Z,7.23
2023-04-28T06:05:39.124Z,9.60
2023-04-28T06:07:42.084Z,12.33
2023-04-28T06:09:44.996Z,6.90
2023-04-28T06:11:47.742Z,6.70
2023-04-28T06:13:50.921Z,6.90
2023-04-28T06:15:53.730Z,6.50
2023-04-28T06:17:56.613Z,6.27
2023-04-28T06:20:00.721Z,7.37
2023-04-28T06:22:03.427Z,7.27
2023-04-28T06:24:06.672Z,7.53
2023-04-28T06:26:09.413Z,6.57
2023-04-28T06:28:13.392Z,7.10
2023-04-28T06:30:18.696Z,7.10
2023-04-28T06:32:21.451Z,8.33
2023-04-28T06:34:27.157Z,7.20
2023-04-28T06:36:31.348Z,7.17
2023-04-28T06:38:34.096Z,7.03
2023-04-28T06:40:36.812Z,6.87
2023-04-28T06:42:39.865Z,6.60
2023-04-28T06:44:42.705Z,6.47
2023-04-28T06:46:45.507Z,6.60
2023-04-28T06:48:48.247Z,7.10
2023-04-28T06:50:51.019Z,7.60
2023-04-28T06:52:55.069Z,6.90
2023-04-28T06:54:57.853Z,8.20
2023-04-28T06:57:00.576Z,6.93
2023-04-28T06:59:03.326Z,7.17
2023-04-28T07:01:06.214Z,7.87
2023-04-28T07:03:09.434Z,7.23
2023-04-28T07:05:14.088Z,7.27
2023-04-28T07:07:18.161Z,7.03
2023-04-28T07:09:22.221Z,7.40
2023-04-28T07:11:24.918Z,7.27
2023-04-28T07:13:27.659Z,7.33
2023-04-28T07:15:31.352Z,7.73
2023-04-28T07:17:34.154Z,6.90
2023-04-28T07:19:36.894Z,6.97
2023-04-28T07:21:39.607Z,7.37
2023-04-28T07:23:43.196Z,7.40
2023-04-28T07:25:47.243Z,7.37
2023-04-28T07:27:50.232Z,8.10
2023-04-28T07:29:52.955Z,7.30
2023-04-28T07:31:55.809Z,6.83
2023-04-28T07:33:58.588Z,7.70
2023-04-28T07:36:01.292Z,8.00
2023-04-28T07:38:04.106Z,7.13
2023-04-28T07:40:08.038Z,7.90
2023-04-28T07:42:12.291Z,7.77
2023-04-28T07:44:15.243Z,8.53
2023-04-28T07:46:18.122Z,8.33
2023-04-28T07:48:20.909Z,7.33
2023-04-28T07:50:23.813Z,8.20
2023-04-28T07:52:26.553Z,7.60
2023-04-28T07:54:29.293Z,7.90
2023-04-28T07:56:32.231Z,7.83
2023-04-28T07:58:36.288Z,8.00
2023-04-28T08:00:40.847Z,9.43
2023-04-28T08:02:43.935Z,8.50
2023-04-28T08:04:47.040Z,7.73
2023-04-28T08:06:49.890Z,8.13
2023-04-28T08:08:52.680Z,8.80
2023-04-28T08:10:55.438Z,8.17
2023-04-28T08:12:58.358Z,10.47
2023-04-28T08:15:02.484Z,9.23
2023-04-28T08:17:05.242Z,9.30
2023-04-28T08:19:08.358Z,8.30
2023-04-28T08:21:11.162Z,9.00
2023-04-28T08:23:13.947Z,8.60
2023-04-28T08:25:18.441Z,8.90
2023-04-28T08:27:21.206Z,9.50
2023-04-28T08:29:23.997Z,8.27
2023-04-28T08:31:28.159Z,8.27
2023-04-28T08:33:30.972Z,9.30
2023-04-28T08:35:33.801Z,9.23
2023-04-28T08:37:36.799Z,8.70
2023-04-28T08:39:39.565Z,9.30
2023-04-28T08:41:42.325Z,8.80
2023-04-28T08:43:45.621Z,8.33
2023-04-28T08:45:48.457Z,7.97
2023-04-28T08:47:52.766Z,8.77
2023-04-28T08:49:55.730Z,8.73
2023-04-28T08:52:00.536Z,8.67
2023-04-28T08:54:24.872Z,15.80
2023-04-28T08:56:27.876Z,9.47
2023-04-28T08:58:30.680Z,12.13
2023-04-28T09:00:33.452Z,9.37
2023-04-28T09:02:37.931Z,9.57
2023-04-28T09:04:42.476Z,8.90
2023-04-28T09:06:46.107Z,9.73
2023-04-28T09:08:48.914Z,9.13
2023-04-28T09:10:59.516Z,8.07
2023-04-28T09:13:02.318Z,9.00
2023-04-28T09:15:09.602Z,9.20
2023-04-28T09:17:13.385Z,8.37
2023-04-28T09:19:16.393Z,9.33
2023-04-28T09:21:20.501Z,9.30
2023-04-28T09:23:23.459Z,9.50
2023-04-28T09:25:27.925Z,9.93
2023-04-28T09:27:30.705Z,8.90
2023-04-28T09:29:33.468Z,10.00
2023-04-28T09:31:40.637Z,9.40
2023-04-28T09:33:57.272Z,8.73
2023-04-28T09:36:00.060Z,43.27
2023-04-28T09:38:04.175Z,16.17
2023-04-28T09:40:08.482Z,9.80
2023-04-28T09:42:11.275Z,8.07
2023-04-28T09:44:15.677Z,10.10
2023-04-28T09:46:19.270Z,9.73
2023-04-28T09:48:28.727Z,9.70
2023-04-28T09:50:40.787Z,9.23
2023-04-28T09:52:44.278Z,10.53
2023-04-28T09:54:49.607Z,9.57
2023-04-28T09:56:52.360Z,10.20
2023-04-28T09:58:55.158Z,10.53
2023-04-28T10:00:58.812Z,9.20
2023-04-28T10:03:02.113Z,10.57
2023-04-28T10:05:05.539Z,10.57
2023-04-28T10:07:08.904Z,11.17
2023-04-28T10:09:14.024Z,10.33
2023-04-28T10:11:18.201Z,10.20
2023-04-28T10:13:21.267Z,9.70
2023-04-28T10:15:24.286Z,9.67
2023-04-28T10:17:27.362Z,9.60
2023-04-28T10:19:30.397Z,10.33
2023-04-28T10:21:33.520Z,10.10
2023-04-28T10:23:52.305Z,10.10
2023-04-28T10:25:58.151Z,10.00
2023-04-28T10:28:02.337Z,9.73
2023-04-28T10:30:22.931Z,11.03
2023-04-28T10:32:30.909Z,9.90
2023-04-28T10:34:33.720Z,10.67
2023-04-28T10:36:49.122Z,10.87
2023-04-28T10:39:10.838Z,10.07
2023-04-28T10:41:32.588Z,10.90
2023-04-28T10:43:39.360Z,10.57
2023-04-28T10:46:01.294Z,8.63
2023-04-28T10:48:06.368Z,11.53
2023-04-28T10:50:09.787Z,11.10
2023-04-28T10:52:44.192Z,10.67
2023-04-28T10:55:19.295Z,10.80
2023-04-28T10:57:24.482Z,11.10
2023-04-28T10:59:29.990Z,10.93
2023-04-28T11:01:34.824Z,10.47
2023-04-28T11:03:46.619Z,11.23
2023-04-28T11:06:19.146Z,10.20
2023-04-28T11:08:36.872Z,11.03
2023-04-28T11:11:17.145Z,10.57
2023-04-28T11:13:33.949Z,11.10
2023-04-28T11:15:39.047Z,10.60
2023-04-28T11:17:42.534Z,10.73
2023-04-28T11:19:46.114Z,10.87
2023-04-28T11:21:49.076Z,10.97
2023-04-28T11:23:51.851Z,10.60
2023-04-28T11:25:55.151Z,10.07
2023-04-28T11:28:04.842Z,9.90
2023-04-28T11:30:22.241Z,11.30
2023-04-28T11:32:29.974Z,9.93
2023-04-28T11:34:33.003Z,10.47
2023-04-28T11:36:37.390Z,11.07
2023-04-28T11:38:47.023Z,11.03
2023-04-28T11:40:58.783Z,10.60
2023-04-28T11:43:03.984Z,10.13
2023-04-28T11:45:08.066Z,11.17
2023-04-28T11:47:10.940Z,11.40
2023-04-28T11:49:15.381Z,10.87
2023-04-28T11:51:38.053Z,11.47
2023-04-28T11:53:43.923Z,11.07
2023-04-28T11:55:46.797Z,10.73
2023-04-28T11:57:49.572Z,10.50
2023-04-28T11:59:52.388Z,11.50
2023-04-28T12:01:56.907Z,10.10
2023-04-28T12:04:00.152Z,9.07
2023-04-28T12:06:04.763Z,10.50
2023-04-28T12:08:07.572Z,12.00
2023-04-28T12:10:15.687Z,10.53
2023-04-28T12:12:40.055Z,11.33
2023-04-28T12:14:56.042Z,11.90
2023-04-28T12:16:58.884Z,10.80
2023-04-28T12:19:02.511Z,10.50
2023-04-28T12:21:06.864Z,10.97
2023-04-28T12:23:09.700Z,11.23
2023-04-28T12:25:13.483Z,11.67
2023-04-28T12:27:17.210Z,11.53
2023-04-28T12:29:40.177Z,11.57
2023-04-28T12:31:50.396Z,11.40
2023-04-28T12:33:53.532Z,11.50
2023-04-28T12:35:57.013Z,12.30
2023-04-28T12:38:01.143Z,11.20
2023-04-28T12:40:04.611Z,12.73
2023-04-28T12:42:07.950Z,12.33
2023-04-28T12:44:10.767Z,11.77
2023-04-28T12:46:14.803Z,12.13
2023-04-28T12:48:17.620Z,11.77
2023-04-28T12:50:20.743Z,12.30
2023-04-28T12:52:23.808Z,12.03
2023-04-28T12:54:27.918Z,11.67
2023-04-28T12:56:30.674Z,12.80
2023-04-28T12:58:33.475Z,11.98
2023-04-28T13:00:36.295Z,12.23
2023-04-28T13:02:39.233Z,12.90
2023-04-28T13:04:42.931Z,12.40
2023-04-28T13:06:46.460Z,13.27
2023-04-28T13:08:49.321Z,13.07
2023-04-28T13:10:53.456Z,13.50
2023-04-28T13:12:56.258Z,12.27
2023-04-28T13:14:59.038Z,12.90
2023-04-28T13:17:03.364Z,13.00
2023-04-28T13:19:09.542Z,13.87
2023-04-28T13:21:12.738Z,12.80
2023-04-28T13:23:15.529Z,13.13
2023-04-28T13:25:18.318Z,13.40
2023-04-28T13:27:22.425Z,13.67
2023-04-28T13:29:25.205Z,13.13
2023-04-28T13:31:28.135Z,13.17
2023-04-28T13:33:31.331Z,12.87
2023-04-28T13:35:34.156Z,14.63
2023-04-28T13:37:42.469Z,13.43
2023-04-28T13:39:45.263Z,14.00
2023-04-28T13:41:48.912Z,13.40
2023-04-28T13:43:53.714Z,13.63
2023-04-28T13:45:56.493Z,15.43
2023-04-28T13:47:59.413Z,14.67
2023-04-28T13:50:02.240Z,13.77
2023-04-28T13:52:05.053Z,14.10
2023-04-28T13:54:10.517Z,13.17
2023-04-28T13:56:13.290Z,13.67
2023-04-28T13:58:16.169Z,14.17
2023-04-28T14:00:21.320Z,13.77
2023-04-28T14:02:24.616Z,13.57
2023-04-28T14:04:27.875Z,14.17
2023-04-28T14:06:31.940Z,13.97
2023-04-28T14:08:36.637Z,12.70
2023-04-28T14:10:39.410Z,12.87
2023-04-28T14:12:42.186Z,13.03
2023-04-28T14:14:47.637Z,13.10
2023-04-28T14:16:51.894Z,13.47
2023-04-28T14:18:55.576Z,13.13
2023-04-28T14:20:58.358Z,11.90
2023-04-28T14:23:01.224Z,11.90
2023-04-28T14:25:04.001Z,12.73
2023-04-28T14:27:07.395Z,13.47
2023-04-28T14:29:10.595Z,12.93
2023-04-28T14:31:13.407Z,13.73
2023-04-28T14:33:17.742Z,12.90
2023-04-28T14:35:21.918Z,13.30
2023-04-28T14:37:24.811Z,12.43
2023-04-28T14:39:27.651Z,13.13
2023-04-28T14:41:30.421Z,13.37
2023-04-28T14:43:33.205Z,12.90
2023-04-28T14:45:37.132Z,12.07
2023-04-28T14:47:40.320Z,12.80
2023-04-28T14:49:45.363Z,12.47
2023-04-28T14:51:48.778Z,13.30
2023-04-28T14:53:51.546Z,12.80
2023-04-28T14:55:59.558Z,13.33
2023-04-28T14:58:10.237Z,12.00
2023-04-28T15:00:14.036Z,11.30
2023-04-28T15:02:16.826Z,12.10
2023-04-28T15:04:19.918Z,11.83
2023-04-28T15:06:24.150Z,12.40
2023-04-28T15:08:29.429Z,10.83
2023-04-28T15:10:38.405Z,10.57
2023-04-28T15:12:41.869Z,11.13
2023-04-28T15:14:44.676Z,10.30
2023-04-28T15:16:47.882Z,11.17
2023-04-28T15:18:50.666Z,10.17
2023-04-28T15:20:53.446Z,9.80
2023-04-28T15:22:57.577Z,11.57
2023-04-28T15:25:00.839Z,11.00
2023-04-28T15:27:04.844Z,11.80
2023-04-28T15:29:07.673Z,11.50
2023-04-28T15:31:10.506Z,11.47
2023-04-28T15:33:17.157Z,11.97
2023-04-28T15:35:20.152Z,10.67
2023-04-28T15:37:40.315Z,12.17
2023-04-28T15:39:44.805Z,12.27
2023-04-28T15:41:47.693Z,12.37
2023-04-28T15:43:50.710Z,11.90
2023-04-28T15:45:53.564Z,11.13
2023-04-28T15:47:56.401Z,10.93
2023-04-28T15:49:59.554Z,12.23
2023-04-28T15:52:02.332Z,11.80
2023-04-28T15:54:05.330Z,11.40
2023-04-28T15:56:09.478Z,11.33
2023-04-28T15:58:12.244Z,11.73
2023-04-28T16:00:15.979Z,16.20
2023-04-28T16:02:18.947Z,12.17
2023-04-28T16:04:22.203Z,12.57
2023-04-28T16:06:25.498Z,14.93
2023-04-28T16:08:29.353Z,13.50
2023-04-28T16:10:32.155Z,14.50
2023-04-28T16:12:36.276Z,13.50
2023-04-28T16:14:39.063Z,15.33
2023-04-28T16:16:42.116Z,14.50
2023-04-28T16:18:45.056Z,14.47
2023-04-28T16:20:47.853Z,15.17
2023-04-28T16:22:50.634Z,14.87
2023-04-28T16:24:53.787Z,13.97
2023-04-28T16:26:56.742Z,13.80
2023-04-28T16:29:00.947Z,15.17
2023-04-28T16:31:03.748Z,14.50
2023-04-28T16:33:06.538Z,13.77
2023-04-28T16:35:15.209Z,14.70
2023-04-28T16:37:18.128Z,14.70
2023-04-28T16:39:21.302Z,13.97
2023-04-28T16:41:24.123Z,16.20
2023-04-28T16:43:26.899Z,16.23
2023-04-28T16:45:31.715Z,15.47
2023-04-28T16:47:34.503Z,15.87
2023-04-28T16:49:37.281Z,14.90
2023-04-28T16:51:40.061Z,14.73
2023-04-28T16:53:42.906Z,16.00
2023-04-28T16:55:45.888Z,15.23
2023-04-28T16:57:48.687Z,15.20
2023-04-28T16:59:52.150Z,16.53
2023-04-28T17:01:56.548Z,15.40
2023-04-28T17:03:59.397Z,16.10
2023-04-28T17:06:02.430Z,16.37
2023-04-28T17:08:05.264Z,14.67
2023-04-28T17:10:09.068Z,16.50
2023-04-28T17:12:11.818Z,15.27
2023-04-28T17:14:14.692Z,15.20
2023-04-28T17:16:17.532Z,15.30
2023-04-28T17:18:21.725Z,14.57
2023-04-28T17:20:24.629Z,15.83
2023-04-28T17:22:27.708Z,15.57
2023-04-28T17:24:30.509Z,16.30
2023-04-28T17:26:33.281Z,16.33
2023-04-28T17:28:36.045Z,16.67
2023-04-28T17:30:39.165Z,16.07
2023-04-28T17:32:43.491Z,16.23
2023-04-28T17:34:48.087Z,17.00
2023-04-28T17:36:50.886Z,15.40
2023-04-28T17:38:53.666Z,15.80
2023-04-28T17:40:56.753Z,16.40
2023-04-28T17:42:59.545Z,15.60
2023-04-28T17:45:02.413Z,17.47
2023-04-28T17:47:05.253Z,16.10
2023-04-28T17:49:08.617Z,16.47
2023-04-28T17:51:12.753Z,17.43
2023-04-28T17:53:15.927Z,17.73
2023-04-28T17:55:18.882Z,17.50
2023-04-28T17:57:21.694Z,17.17
2023-04-28T17:59:24.482Z,19.10
2023-04-28T18:01:27.564Z,17.77
2023-04-28T18:03:30.925Z,18.10
2023-04-28T18:05:35.390Z,18.43
2023-04-28T18:07:40.298Z,17.67
2023-04-28T18:09:43.110Z,17.83
2023-04-28T18:11:45.868Z,19.17
2023-04-28T18:13:48.630Z,18.13
2023-04-28T18:15:51.731Z,17.70
2023-04-28T18:17:54.508Z,17.90
2023-04-28T18:19:57.821Z,18.73
2023-04-28T18:22:00.937Z,18.70
2023-04-28T18:24:05.280Z,18.60
2023-04-28T18:26:08.608Z,18.80
2023-04-28T18:28:11.445Z,18.17
2023-04-28T18:30:14.529Z,20.50
2023-04-28T18:32:17.298Z,19.57
2023-04-28T18:34:20.041Z,20.70
2023-04-28T18:36:22.801Z,20.30
2023-04-28T18:38:26.133Z,19.33
2023-04-28T18:40:34.348Z,19.60
2023-04-28T18:42:37.146Z,18.70
2023-04-28T18:44:40.875Z,20.13
2023-04-28T18:46:43.659Z,19.93
2023-04-28T18:48:47.258Z,20.40
2023-04-28T18:50:50.066Z,20.90
2023-04-28T18:52:52.838Z,21.47
2023-04-28T18:54:55.629Z,21.00
2023-04-28T18:56:59.798Z,22.37
2023-04-28T18:59:04.177Z,24.90
2023-04-28T19:01:07.024Z,20.73
2023-04-28T19:03:09.956Z,24.10
2023-04-28T19:05:13.122Z,23.37
2023-04-28T19:07:16.017Z,24.73
2023-04-28T19:09:18.777Z,22.93
2023-04-28T19:11:21.497Z,26.47
2023-04-28T19:13:25.697Z,24.27
2023-04-28T19:15:28.467Z,22.77
2023-04-28T19:17:31.669Z,24.63
2023-04-28T19:19:35.007Z,25.10
2023-04-28T19:21:43.124Z,24.83
2023-04-28T19:23:46.153Z,26.30
2023-04-28T19:25:48.995Z,26.80
2023-04-28T19:27:51.803Z,26.47
2023-04-28T19:29:56.737Z,25.80
2023-04-28T19:31:59.497Z,27.13
2023-04-28T19:34:02.333Z,24.20
2023-04-28T19:36:05.944Z,24.60
2023-04-28T19:38:09.501Z,25.50
2023-04-28T19:40:13.454Z,23.90
2023-04-28T19:42:16.218Z,22.73
2023-04-28T19:44:18.999Z,23.57
2023-04-28T19:46:23.173Z,25.63
2023-04-28T19:48:26.814Z,24.00
2023-04-28T19:50:29.588Z,22.77
2023-04-28T19:52:32.346Z,21.77
2023-04-28T19:54:35.125Z,21.60
2023-04-28T19:56:37.915Z,22.70
2023-04-28T19:58:41.033Z,23.13
2023-04-28T20:00:43.802Z,25.90
2023-04-28T20:02:47.996Z,25.77
2023-04-28T20:04:50.872Z,24.13
2023-04-28T20:06:53.630Z,27.13
2023-04-28T20:08:56.382Z,28.63
2023-04-28T20:10:59.158Z,30.30
2023-04-28T20:13:02.157Z,28.20
2023-04-28T20:15:05.489Z,29.50
2023-04-28T20:17:09.044Z,29.00
2023-04-28T20:19:13.185Z,28.30
2023-04-28T20:21:15.948Z,28.93
2023-04-28T20:23:18.703Z,28.43
2023-04-28T20:25:22.719Z,28.77
2023-04-28T20:27:25.466Z,30.67
2023-04-28T20:29:31.151Z,28.03
2023-04-28T20:31:33.917Z,30.33
2023-04-28T20:33:36.672Z,27.07
2023-04-28T20:35:40.777Z,29.10
2023-04-28T20:37:43.545Z,24.60
2023-04-28T20:39:47.112Z,24.30
2023-04-28T20:41:49.856Z,20.50
2023-04-28T20:43:54.397Z,18.47
2023-04-28T20:45:57.727Z,17.50
2023-04-28T20:48:00.544Z,17.87
2023-04-28T20:50:03.611Z,17.87
2023-04-28T20:52:07.696Z,18.27
2023-04-28T20:54:10.479Z,16.27
2023-04-28T20:56:13.232Z,17.23
2023-04-28T20:58:16.225Z,16.20
2023-04-28T21:00:19.018Z,16.97
2023-04-28T21:02:21.860Z,16.70
2023-04-28T21:04:24.686Z,16.93
2023-04-28T21:06:27.450Z,15.23
2023-04-28T21:08:31.534Z,18.85
2023-04-28T21:10:34.382Z,17.50
2023-04-28T21:12:37.171Z,14.30
2023-04-28T21:14:40.285Z,14.40
2023-04-28T21:16:43.363Z,13.90
2023-04-28T21:18:46.811Z,12.67
2023-04-28T21:20:51.032Z,13.70
2023-04-28T21:22:53.771Z,11.90
2023-04-28T21:24:58.100Z,12.70
2023-04-28T21:27:02.848Z,13.33
2023-04-28T21:29:05.671Z,12.33
2023-04-28T21:31:08.418Z,12.20
2023-04-28T21:33:11.304Z,13.70
2023-04-28T21:35:14.324Z,12.20
2023-04-28T21:37:17.063Z,13.97
2023-04-28T21:39:19.820Z,12.40
2023-04-28T21:41:25.202Z,12.97
2023-04-28T21:43:27.953Z,12.37
2023-04-28T21:45:30.716Z,12.77
2023-04-28T21:47:33.496Z,14.80
2023-04-28T21:49:36.270Z,11.67
2023-04-28T21:51:42.113Z,12.80
2023-04-28T21:53:44.855Z,10.57
2023-04-28T21:55:47.886Z,12.30
2023-04-28T21:57:53.999Z,12.40
2023-04-28T21:59:57.033Z,12.30
2023-04-28T22:01:59.976Z,12.43
2023-04-28T22:04:03.739Z,13.00
2023-04-28T22:06:06.892Z,13.27
2023-04-28T22:08:09.714Z,14.40
2023-04-28T22:10:13.120Z,14.23
2023-04-28T22:12:15.961Z,13.73
2023-04-28T22:14:38.865Z,13.50
2023-04-28T22:16:42.858Z,12.77
2023-04-28T22:18:45.621Z,13.03
2023-04-28T22:20:50.064Z,16.53
2023-04-28T22:22:53.907Z,15.13
2023-04-28T22:24:56.709Z,14.93
2023-04-28T22:26:59.681Z,16.30
2023-04-28T22:29:02.573Z,14.57
2023-04-28T22:31:06.857Z,16.00
2023-04-28T22:33:10.240Z,17.67
2023-04-28T22:35:13.170Z,17.47
2023-04-28T22:37:15.930Z,15.83
2023-04-28T22:39:18.695Z,18.07
2023-04-28T22:41:21.459Z,16.40
2023-04-28T22:43:24.206Z,16.37
2023-04-28T22:45:27.230Z,17.47
2023-04-28T22:47:31.503Z,18.23
2023-04-28T22:49:34.398Z,18.13
2023-04-28T22:51:37.182Z,18.50
2023-04-28T22:53:39.963Z,16.93
2023-04-28T22:55:43.398Z,18.67
2023-04-28T22:57:46.230Z,19.10
2023-04-28T22:59:49.223Z,17.83
2023-04-28T23:01:53.265Z,19.97
2023-04-28T23:03:57.702Z,18.17
2023-04-28T23:06:00.669Z,21.63
2023-04-28T23:08:03.436Z,20.23
2023-04-28T23:10:07.598Z,19.40
2023-04-28T23:12:10.400Z,21.40
2023-04-28T23:14:13.194Z,19.93
2023-04-28T23:16:16.011Z,20.77
2023-04-28T23:18:18.830Z,23.07
2023-04-28T23:20:23.046Z,22.83
2023-04-28T23:22:25.813Z,22.30
2023-04-28T23:24:28.591Z,24.37
2023-04-28T23:26:31.346Z,27.27
2023-04-28T23:28:34.127Z,29.17
2023-04-28T23:30:36.953Z,29.40
2023-04-28T23:32:39.809Z,31.73
2023-04-28T23:34:42.797Z,29.33
2023-04-28T23:36:47.049Z,29.37
2023-04-28T23:38:50.126Z,29.37
2023-04-28T23:40:52.927Z,29.53
2023-04-28T23:42:55.716Z,31.67
2023-04-28T23:44:59.112Z,31.07
2023-04-28T23:47:01.900Z,32.17
2023-04-28T23:49:04.767Z,33.27
2023-04-28T23:51:07.622Z,37.40
2023-04-28T23:53:11.728Z,38.60
2023-04-28T23:55:14.579Z,36.90
2023-04-28T23:57:17.355Z,38.90
2023-04-28T23:59:20.208Z,38.07
